< < Back
Terminal Aerodrome Forecast


Current Version              Previous Versions:   1  2  3  4  5  6  7  8  9  

Terminal Aerodrome Forecast

631
FTUS42 KGSP 271200 AAA
TAFAVL
TAF AMD
KAVL 271250Z 2713/2812 00000KT 1/4SM FG VV002
      TEMPO 2713/2714 2SM BR BKN003
     FM271400 34003KT 5SM BR BKN010
     FM271500 34005KT P6SM SCT035
     FM280100 00000KT P6SM FEW150=

Latest METAR

273
SAUS70 KWBC 271300 RRE
MTRAVL
METAR KAVL 271254Z 00000KT 1/4SM FG VV002 15/14 A3021 RMK AO2 SLP209
T01500144 RVRNO


USA.gov is the U.S. government's official web portal to all federal, state and local government web resources and services.